West Point, Kentucky
Current Conditions -  °F | °C
As of 5:58 AM on Wednesday 22 Oct 2014 (Local Time) from KFTK Reporting Station
Clear Clear  
Wind Chill: 40°   Ceiling: Unl
Heat Index: 43°   Visibility: 10mi
Dew Point: 39°   Wind: 5mph
Humidity: 86%   Direction: 10°N
Pressure: 30.21"   Gusts: NA
Location:  38°N, 85.94°W
Report Text: KFTK 220958Z AUTO 01004KT 10SM CLR 06/04 A3021 RMK AO2 SLP234 T00590037
Loading
Personal Weather Stations






























Interactive Weather Map
Tropical Storm Tracking
New forecast layout! Learn more

10-Day Weather Forecast

Advertisements
Track Severe Weather on mobile